Time;durP1;ratioP1;P1;durP2;ratioP2;P2;SDS_P1;SDS_P2;PMS_P1;PMS_P2;Temp;Humidity;BMP_temperature;BMP_pressure;BME280_temperature;BME280_humidity;BME280_pressure;Samples;Min_cycle;Max_cycle;Signal;HPM_P1;HPM_P2
2022/08/19 00:00:36;;;;;;;;;;;18.30;99.90;;;;;;5014366;28;20280;-74
2022/08/19 00:03:02;;;;;;;;;;;18.30;99.90;;;;;;5010483;28;19905;-74
2022/08/19 00:05:28;;;;;;;;;;;18.30;99.90;;;;;;5018609;28;19909;-78
2022/08/19 00:07:53;;;;;;;;;;;18.30;99.90;;;;;;5013051;28;20324;-80
2022/08/19 00:10:19;;;;;;;;;;;18.40;99.90;;;;;;5012975;28;19906;-80
2022/08/19 00:12:45;;;;;;;;;;;18.40;99.90;;;;;;5016235;28;19913;-74
2022/08/19 00:15:12;;;;;;;;;;;18.40;99.90;;;;;;5017161;28;20276;-80
2022/08/19 00:17:42;;;;;;;;;;;18.40;99.90;;;;;;5016890;28;19960;-80
2022/08/19 00:20:10;;;;;;;;;;;18.40;99.90;;;;;;5016306;28;20433;-80
2022/08/19 00:22:37;;;;;;;;;;;18.40;99.90;;;;;;5016648;28;19906;-80
2022/08/19 00:25:03;;;;;;;;;;;18.40;99.90;;;;;;5016303;28;19906;-74
2022/08/19 00:27:28;;;;;;;;;;;18.50;99.90;;;;;;5015090;28;19972;-74
2022/08/19 00:29:54;;;;;;;;;;;18.50;99.90;;;;;;5016618;28;19941;-74
2022/08/19 00:32:20;;;;;;;;;;;18.60;99.90;;;;;;5016237;28;19905;-80
2022/08/19 00:34:46;;;;;;;;;;;18.60;99.90;;;;;;5016108;28;20440;-74
2022/08/19 00:37:11;;;;;;;;;;;18.60;99.90;;;;;;5016662;28;19995;-80
2022/08/19 00:39:37;;;;;;;;;;;18.70;99.90;;;;;;5016465;28;20041;-74
2022/08/19 00:42:03;;;;;;;;;;;18.70;99.90;;;;;;5013352;28;19909;-81
2022/08/19 00:44:28;;;;;;;;;;;18.70;99.90;;;;;;5020533;28;20360;-81
2022/08/19 00:46:55;;;;;;;;;;;18.70;99.90;;;;;;5018628;28;19959;-74
2022/08/19 00:49:33;;;;;;;;;;;18.70;99.90;;;;;;5022045;28;19905;-80
2022/08/19 00:52:01;;;;;;;;;;;18.80;99.90;;;;;;5016109;28;19909;-74
2022/08/19 00:54:26;;;;;;;;;;;18.80;99.90;;;;;;5015757;28;19913;-74
2022/08/19 00:56:52;;;;;;;;;;;18.80;99.90;;;;;;5015958;28;20012;-80
2022/08/19 00:59:19;;;;;;;;;;;18.80;99.90;;;;;;5015656;28;19909;-74
2022/08/19 01:01:45;;;;;;;;;;;18.90;99.90;;;;;;5017485;28;19905;-81
2022/08/19 01:04:11;;;;;;;;;;;18.90;99.90;;;;;;5018386;28;20004;-74
2022/08/19 01:06:38;;;;;;;;;;;18.90;99.90;;;;;;5015876;28;19956;-74
2022/08/19 01:09:04;;;;;;;;;;;18.90;99.90;;;;;;5015849;28;19912;-81
2022/08/19 01:11:31;;;;;;;;;;;19.00;99.90;;;;;;5015657;28;19909;-79
2022/08/19 01:13:57;;;;;;;;;;;19.00;99.90;;;;;;5015326;28;19957;-80
2022/08/19 01:16:25;;;;;;;;;;;19.00;99.90;;;;;;5015187;28;19913;-80
2022/08/19 01:18:50;;;;;;;;;;;19.00;99.90;;;;;;5015586;28;19964;-74
2022/08/19 01:21:27;;;;;;;;;;;19.00;99.90;;;;;;5015460;28;20419;-74
2022/08/19 01:23:52;;;;;;;;;;;19.00;99.90;;;;;;5014810;28;19987;-74
2022/08/19 01:26:20;;;;;;;;;;;19.00;99.90;;;;;;5015604;28;20327;-74
2022/08/19 01:28:47;;;;;;;;;;;18.90;99.90;;;;;;5014307;28;19909;-80
2022/08/19 01:31:16;;;;;;;;;;;18.90;99.90;;;;;;5015232;28;20376;-73
2022/08/19 01:33:42;;;;;;;;;;;18.90;99.90;;;;;;5019122;28;19909;-80
2022/08/19 01:36:09;;;;;;;;;;;18.90;99.90;;;;;;5015082;28;19916;-80
2022/08/19 01:38:36;;;;;;;;;;;18.90;99.90;;;;;;5015139;28;20293;-80
2022/08/19 01:41:02;;;;;;;;;;;19.00;99.90;;;;;;5012751;28;19909;-80
2022/08/19 01:43:27;;;;;;;;;;;19.00;99.90;;;;;;5018322;28;19963;-80
2022/08/19 01:45:53;;;;;;;;;;;19.00;99.90;;;;;;5015163;28;19917;-74
2022/08/19 01:48:19;;;;;;;;;;;19.00;99.90;;;;;;5023007;28;20375;-80
2022/08/19 01:50:44;;;;;;;;;;;19.00;99.90;;;;;;5015135;28;19905;-80
2022/08/19 01:53:10;;;;;;;;;;;19.00;99.90;;;;;;5014564;28;19922;-80
2022/08/19 01:55:37;;;;;;;;;;;19.00;99.90;;;;;;5014591;28;19912;-74
2022/08/19 01:58:04;;;;;;;;;;;19.00;99.90;;;;;;5014395;28;19905;-73
2022/08/19 02:00:31;;;;;;;;;;;19.10;99.90;;;;;;5015430;28;19917;-80
2022/08/19 02:02:56;;;;;;;;;;;19.10;99.90;;;;;;5015316;28;19905;-73
2022/08/19 02:05:22;;;;;;;;;;;19.10;99.90;;;;;;5017000;28;19927;-80
2022/08/19 02:07:48;;;;;;;;;;;19.10;99.90;;;;;;5014567;28;19909;-74
2022/08/19 02:10:20;;;;;;;;;;;19.10;99.90;;;;;;5014815;28;19911;-80
2022/08/19 02:12:46;;;;;;;;;;;19.10;99.90;;;;;;5014277;28;20276;-74
2022/08/19 02:15:12;;;;;;;;;;;19.10;99.90;;;;;;5015212;28;19936;-73
2022/08/19 02:17:37;;;;;;;;;;;19.10;99.90;;;;;;5014308;28;19909;-74
2022/08/19 02:20:03;;;;;;;;;;;19.10;99.90;;;;;;5014372;28;19912;-80
2022/08/19 02:22:29;;;;;;;;;;;19.20;99.90;;;;;;5014320;28;19910;-74
2022/08/19 02:24:55;;;;;;;;;;;19.20;99.90;;;;;;5014558;28;19905;-74
2022/08/19 02:27:21;;;;;;;;;;;19.20;99.90;;;;;;5013996;28;20360;-74
2022/08/19 02:29:47;;;;;;;;;;;19.20;99.90;;;;;;5013449;28;20425;-80
2022/08/19 02:32:13;;;;;;;;;;;19.20;99.90;;;;;;5014096;28;20000;-80
2022/08/19 02:34:39;;;;;;;;;;;19.20;99.90;;;;;;5014708;28;20001;-74
2022/08/19 02:37:04;;;;;;;;;;;19.20;99.90;;;;;;5014162;28;19913;-74
2022/08/19 02:39:30;;;;;;;;;;;19.20;99.90;;;;;;5014598;28;20483;-80
2022/08/19 02:41:55;;;;;;;;;;;19.20;99.90;;;;;;5012056;28;19916;-80
2022/08/19 02:44:21;;;;;;;;;;;19.20;99.90;;;;;;5017051;28;19944;-80
2022/08/19 02:46:49;;;;;;;;;;;19.20;99.90;;;;;;5015423;28;19949;-81
2022/08/19 02:49:16;;;;;;;;;;;19.20;99.90;;;;;;5019925;28;19905;-80
2022/08/19 02:51:42;;;;;;;;;;;19.20;99.90;;;;;;5014273;28;20283;-80
2022/08/19 02:54:08;;;;;;;;;;;19.30;99.90;;;;;;5010245;28;19921;-80
2022/08/19 02:56:35;;;;;;;;;;;19.20;99.90;;;;;;5016060;28;20019;-80
2022/08/19 02:59:01;;;;;;;;;;;19.20;99.90;;;;;;5013420;28;19905;-80
2022/08/19 03:01:31;;;;;;;;;;;19.20;99.90;;;;;;5015357;28;20274;-74
2022/08/19 03:03:59;;;;;;;;;;;19.20;99.90;;;;;;5016736;28;19912;-74
2022/08/19 03:06:25;;;;;;;;;;;19.20;99.90;;;;;;5015313;28;20436;-80
2022/08/19 03:08:51;;;;;;;;;;;19.20;99.90;;;;;;5013684;28;20265;-74
2022/08/19 03:11:18;;;;;;;;;;;19.20;99.90;;;;;;5013770;28;19906;-74
2022/08/19 03:13:44;;;;;;;;;;;19.10;99.90;;;;;;5013563;28;19909;-80
2022/08/19 03:16:11;;;;;;;;;;;19.10;99.90;;;;;;5018927;28;20383;-74
2022/08/19 03:18:36;;;;;;;;;;;19.10;99.90;;;;;;5018132;28;19905;-80
2022/08/19 03:21:02;;;;;;;;;;;19.10;99.90;;;;;;5013543;28;19905;-74
2022/08/19 03:23:28;;;;;;;;;;;19.00;99.90;;;;;;5013308;28;20261;-80
2022/08/19 03:25:54;;;;;;;;;;;19.00;99.90;;;;;;5013535;28;19916;-74
2022/08/19 03:28:20;;;;;;;;;;;19.00;99.90;;;;;;5013317;28;19906;-74
2022/08/19 03:30:56;;;;;;;;;;;19.00;99.90;;;;;;5012928;28;19912;-74
2022/08/19 03:33:22;;;;;;;;;;;19.00;99.90;;;;;;5013576;28;19909;-80
2022/08/19 03:35:58;;;;;;;;;;;18.90;99.90;;;;;;5013168;28;19957;-74
2022/08/19 03:38:24;;;;;;;;;;;18.90;99.90;;;;;;5013459;28;19909;-80
2022/08/19 03:40:49;;;;;;;;;;;18.90;99.90;;;;;;5013066;28;19924;-74
2022/08/19 03:43:17;;;;;;;;;;;18.90;99.90;;;;;;5014878;28;20261;-74
2022/08/19 03:45:43;;;;;;;;;;;18.90;99.90;;;;;;5015201;28;19905;-74
2022/08/19 03:48:09;;;;;;;;;;;18.90;99.90;;;;;;5025841;28;19906;-74
2022/08/19 03:50:38;;;;;;;;;;;18.90;99.90;;;;;;5017208;28;20376;-74
2022/08/19 03:53:04;;;;;;;;;;;19.00;99.90;;;;;;5017020;28;20007;-80
2022/08/19 03:55:30;;;;;;;;;;;18.90;99.90;;;;;;5017032;28;19953;-74
2022/08/19 03:57:56;;;;;;;;;;;19.00;99.90;;;;;;5016585;28;19912;-74
2022/08/19 04:00:21;;;;;;;;;;;18.90;99.90;;;;;;5017062;28;19963;-79
2022/08/19 04:02:47;;;;;;;;;;;18.90;99.90;;;;;;5018154;28;19949;-80
2022/08/19 04:05:13;;;;;;;;;;;18.90;99.90;;;;;;5022242;28;19913;-80
2022/08/19 04:07:39;;;;;;;;;;;18.90;99.90;;;;;;5017096;28;19905;-74
2022/08/19 04:10:04;;;;;;;;;;;18.90;99.90;;;;;;5016887;28;19928;-80
2022/08/19 04:12:30;;;;;;;;;;;18.80;99.90;;;;;;5016306;28;19913;-80
2022/08/19 04:14:56;;;;;;;;;;;18.90;99.90;;;;;;5016892;28;20283;-80
2022/08/19 04:17:22;;;;;;;;;;;18.90;99.90;;;;;;5015748;28;19912;-80
2022/08/19 04:19:47;;;;;;;;;;;18.80;99.90;;;;;;5016720;28;19906;-74
2022/08/19 04:22:13;;;;;;;;;;;18.90;99.90;;;;;;5016789;28;19927;-74
2022/08/19 04:24:38;;;;;;;;;;;18.80;99.90;;;;;;5016408;28;19913;-74
2022/08/19 04:27:05;;;;;;;;;;;18.90;99.90;;;;;;5014376;28;19917;-80
2022/08/19 04:29:30;;;;;;;;;;;18.90;99.90;;;;;;5016095;28;19905;-74
2022/08/19 04:31:56;;;;;;;;;;;18.90;99.90;;;;;;5015524;28;19912;-74
2022/08/19 04:34:23;;;;;;;;;;;18.80;99.90;;;;;;5016193;28;19909;-73
2022/08/19 04:36:50;;;;;;;;;;;18.80;99.90;;;;;;5016143;28;19952;-79
2022/08/19 04:39:18;;;;;;;;;;;18.70;99.90;;;;;;5016647;28;19910;-80
2022/08/19 04:44:30;;;;;;;;;;;18.70;99.90;;;;;;5020006;28;19952;-79
2022/08/19 04:46:55;;;;;;;;;;;18.70;99.90;;;;;;5015925;28;20413;-74
2022/08/19 04:49:23;;;;;;;;;;;18.70;99.90;;;;;;5017540;28;19906;-80
2022/08/19 04:51:49;;;;;;;;;;;18.70;99.90;;;;;;5018035;28;19909;-80
2022/08/19 04:54:16;;;;;;;;;;;18.80;99.90;;;;;;5015473;28;19917;-80
2022/08/19 04:56:41;;;;;;;;;;;18.80;99.90;;;;;;5015118;28;19910;-79
2022/08/19 04:59:08;;;;;;;;;;;18.80;99.90;;;;;;5013865;28;19932;-80
2022/08/19 05:01:34;;;;;;;;;;;18.80;99.90;;;;;;5016860;28;19913;-74
2022/08/19 05:04:01;;;;;;;;;;;18.70;99.90;;;;;;5019367;28;19909;-80
2022/08/19 05:06:28;;;;;;;;;;;18.70;99.90;;;;;;5017676;28;20044;-74
2022/08/19 05:08:54;;;;;;;;;;;18.70;99.90;;;;;;5015883;28;20332;-80
2022/08/19 05:11:21;;;;;;;;;;;18.70;99.90;;;;;;5014728;28;19905;-80
2022/08/19 05:13:48;;;;;;;;;;;18.70;99.90;;;;;;5015254;28;19924;-74
2022/08/19 05:16:15;;;;;;;;;;;18.70;99.90;;;;;;5015424;28;20400;-74
2022/08/19 05:24:09;;;;;;;;;;;18.70;99.90;;;;;;5015477;28;20008;-73
2022/08/19 05:26:35;;;;;;;;;;;18.70;99.90;;;;;;5015356;28;19967;-79
2022/08/19 05:29:02;;;;;;;;;;;18.80;99.90;;;;;;5014787;28;20004;-74
2022/08/19 05:31:28;;;;;;;;;;;18.80;99.90;;;;;;5015084;28;19913;-74
2022/08/19 05:33:53;;;;;;;;;;;18.80;99.90;;;;;;5018657;28;19909;-80
2022/08/19 05:36:19;;;;;;;;;;;18.80;99.90;;;;;;5014947;28;19991;-73
2022/08/19 05:38:45;;;;;;;;;;;18.80;99.90;;;;;;5015412;28;19997;-74
2022/08/19 05:41:12;;;;;;;;;;;18.80;99.90;;;;;;5012947;28;19957;-73
2022/08/19 05:43:37;;;;;;;;;;;18.80;99.90;;;;;;5018267;28;19912;-74
2022/08/19 05:46:06;;;;;;;;;;;18.80;99.90;;;;;;5015129;28;20280;-74
2022/08/19 05:48:35;;;;;;;;;;;18.80;99.90;;;;;;5014556;28;19906;-79
2022/08/19 05:51:05;;;;;;;;;;;18.80;99.90;;;;;;5013625;28;19909;-73
2022/08/19 05:53:32;;;;;;;;;;;18.90;99.90;;;;;;5014058;28;19944;-74
2022/08/19 05:55:57;;;;;;;;;;;18.90;99.90;;;;;;5014696;28;19959;-74
2022/08/19 05:58:24;;;;;;;;;;;18.90;99.90;;;;;;5019833;28;19945;-79
2022/08/19 06:00:50;;;;;;;;;;;18.90;99.90;;;;;;5019465;28;19905;-80
2022/08/19 06:03:15;;;;;;;;;;;19.00;99.90;;;;;;5013709;28;19932;-80
2022/08/19 06:05:41;;;;;;;;;;;19.00;99.90;;;;;;5013829;28;19947;-75
2022/08/19 06:08:07;;;;;;;;;;;19.10;99.90;;;;;;5011277;28;19905;-75
2022/08/19 06:10:32;;;;;;;;;;;19.20;99.90;;;;;;5012992;28;20123;-74
2022/08/19 06:12:58;;;;;;;;;;;19.20;99.90;;;;;;5012583;28;20383;-74
2022/08/19 06:15:25;;;;;;;;;;;19.20;99.90;;;;;;5013221;28;19910;-79
2022/08/19 06:17:50;;;;;;;;;;;19.20;99.90;;;;;;5012883;28;19936;-74
2022/08/19 06:20:17;;;;;;;;;;;19.30;99.90;;;;;;5013769;28;19955;-79
2022/08/19 06:22:44;;;;;;;;;;;19.30;99.90;;;;;;5012411;28;19909;-79
2022/08/19 06:25:11;;;;;;;;;;;19.40;99.90;;;;;;5013447;28;19909;-80
2022/08/19 06:27:36;;;;;;;;;;;19.30;99.90;;;;;;5008303;28;19913;-80
2022/08/19 06:30:10;;;;;;;;;;;19.20;99.90;;;;;;5065431;28;19923;-73
2022/08/19 06:32:35;;;;;;;;;;;19.20;99.90;;;;;;5068567;28;19913;-73
2022/08/19 06:35:01;;;;;;;;;;;19.20;99.90;;;;;;5065889;28;20376;-76
2022/08/19 06:37:26;;;;;;;;;;;19.10;99.90;;;;;;5068511;28;19912;-77
2022/08/19 06:39:52;;;;;;;;;;;19.10;99.90;;;;;;5068407;28;19912;-77
2022/08/19 06:42:18;;;;;;;;;;;19.10;99.90;;;;;;5068705;28;19915;-73
2022/08/19 06:44:49;;;;;;;;;;;19.30;99.90;;;;;;5072561;28;19912;-76
2022/08/19 06:47:19;;;;;;;;;;;19.40;99.90;;;;;;5070137;28;20290;-78
2022/08/19 06:49:44;;;;;;;;;;;19.70;99.90;;;;;;5067271;28;19920;-77
2022/08/19 06:52:14;;;;;;;;;;;19.90;99.90;;;;;;5067305;28;19909;-77
2022/08/19 06:54:40;;;;;;;;;;;19.90;99.90;;;;;;5064166;28;19909;-78
2022/08/19 06:57:06;;;;;;;;;;;20.10;99.90;;;;;;5068393;28;20287;-74
2022/08/19 06:59:32;;;;;;;;;;;20.50;99.90;;;;;;5068720;28;19908;-78
2022/08/19 07:01:59;;;;;;;;;;;20.70;99.90;;;;;;5063589;28;20448;-77
2022/08/19 07:04:26;;;;;;;;;;;21.10;99.90;;;;;;5069763;28;20391;-77
2022/08/19 07:06:59;;;;;;;;;;;21.20;99.90;;;;;;5068928;28;19961;-76
2022/08/19 07:09:25;;;;;;;;;;;21.10;99.90;;;;;;5066307;28;20019;-74
2022/08/19 07:11:52;;;;;;;;;;;21.00;99.90;;;;;;5063070;28;19912;-74
2022/08/19 07:14:19;;;;;;;;;;;20.90;99.90;;;;;;5069340;28;19908;-74
2022/08/19 07:16:46;;;;;;;;;;;20.90;99.90;;;;;;5066908;28;19913;-76
2022/08/19 07:19:11;;;;;;;;;;;20.90;99.90;;;;;;5066657;28;19923;-75
2022/08/19 07:21:37;;;;;;;;;;;20.90;99.90;;;;;;5066966;28;19908;-75
2022/08/19 07:24:03;;;;;;;;;;;20.90;99.90;;;;;;5066967;28;20409;-74
2022/08/19 07:26:31;;;;;;;;;;;20.90;99.90;;;;;;5068102;28;19962;-77
2022/08/19 07:28:57;;;;;;;;;;;21.00;99.90;;;;;;5063995;28;19933;-77
2022/08/19 07:31:25;;;;;;;;;;;21.10;99.90;;;;;;5069990;28;19912;-74
2022/08/19 07:33:51;;;;;;;;;;;21.10;99.90;;;;;;5072950;28;20402;-77
2022/08/19 07:36:19;;;;;;;;;;;20.90;99.90;;;;;;5064861;28;20460;-74
2022/08/19 07:38:47;;;;;;;;;;;20.80;99.90;;;;;;5065899;28;19923;-74
2022/08/19 07:41:13;;;;;;;;;;;20.80;99.90;;;;;;5050048;28;20011;-78
2022/08/19 07:43:39;;;;;;;;;;;20.80;99.90;;;;;;5046740;28;20375;-78
2022/08/19 07:46:05;;;;;;;;;;;20.80;99.90;;;;;;5053931;28;19923;-77
2022/08/19 07:48:31;;;;;;;;;;;20.90;99.90;;;;;;5058450;28;19923;-74
2022/08/19 07:51:01;;;;;;;;;;;21.00;99.90;;;;;;5054496;28;20003;-78
2022/08/19 07:53:27;;;;;;;;;;;20.90;99.90;;;;;;5053977;28;19935;-78
2022/08/19 07:55:53;;;;;;;;;;;21.00;99.90;;;;;;5047074;28;19959;-74
2022/08/19 07:58:20;;;;;;;;;;;21.00;99.90;;;;;;5058772;28;20342;-78
2022/08/19 08:00:47;;;;;;;;;;;21.00;99.90;;;;;;5051485;28;20302;-74
2022/08/19 08:03:13;;;;;;;;;;;21.20;99.90;;;;;;5050572;28;19917;-75
2022/08/19 08:11:03;;;;;;;;;;;22.00;99.90;;;;;;5051435;28;20015;-78
2022/08/19 08:13:28;;;;;;;;;;;21.90;99.90;;;;;;5051101;28;19919;-74
2022/08/19 08:15:54;;;;;;;;;;;21.90;99.90;;;;;;5045837;28;20008;-78
2022/08/19 08:18:20;;;;;;;;;;;21.90;99.90;;;;;;5051246;28;19920;-74
2022/08/19 08:20:46;;;;;;;;;;;21.50;99.90;;;;;;5048034;28;19917;-78
2022/08/19 08:23:25;;;;;;;;;;;21.30;99.90;;;;;;5046354;28;19917;-78
2022/08/19 08:25:54;;;;;;;;;;;21.40;99.90;;;;;;5046505;28;19923;-74
2022/08/19 08:28:20;;;;;;;;;;;21.50;99.90;;;;;;5046407;28;19980;-78
2022/08/19 08:30:47;;;;;;;;;;;21.40;99.90;;;;;;5046996;28;19994;-78
2022/08/19 08:33:13;;;;;;;;;;;21.30;99.90;;;;;;5051768;28;19950;-78
2022/08/19 08:35:41;;;;;;;;;;;21.20;99.90;;;;;;5051881;28;19936;-78
2022/08/19 08:38:07;;;;;;;;;;;21.20;99.90;;;;;;5051103;28;19956;-78
2022/08/19 08:40:32;;;;;;;;;;;21.20;99.90;;;;;;5049788;28;19959;-78
2022/08/19 08:43:09;;;;;;;;;;;21.20;99.90;;;;;;5048187;28;20011;-78
2022/08/19 08:45:36;;;;;;;;;;;21.20;99.90;;;;;;5044218;28;19913;-78
2022/08/19 08:48:07;;;;;;;;;;;21.40;99.90;;;;;;5045880;28;20297;-78
2022/08/19 08:50:39;;;;;;;;;;;21.60;99.90;;;;;;5058787;28;19913;-75
2022/08/19 08:53:05;;;;;;;;;;;21.70;99.90;;;;;;5048874;28;19931;-74
2022/08/19 08:55:31;;;;;;;;;;;21.60;99.90;;;;;;5050641;28;20074;-75
2022/08/19 08:58:05;;;;;;;;;;;21.30;99.90;;;;;;5062914;28;20008;-78
2022/08/19 09:00:36;;;;;;;;;;;21.30;99.90;;;;;;5060364;28;20299;-80
2022/08/19 09:03:03;;;;;;;;;;;21.50;99.90;;;;;;5053070;28;19917;-79
2022/08/19 09:05:42;;;;;;;;;;;21.90;99.90;;;;;;5050617;28;19909;-79
2022/08/19 09:08:37;;;;;;;;;;;22.10;99.90;;;;;;5054763;28;19916;-79
2022/08/19 09:11:05;;;;;;;;;;;22.20;99.90;;;;;;5061430;28;19921;-77
2022/08/19 09:13:37;;;;;;;;;;;23.90;99.90;;;;;;5052070;28;19923;-79
2022/08/19 09:16:03;;;;;;;;;;;25.60;99.90;;;;;;5057857;28;19920;-79
2022/08/19 09:18:43;;;;;;;;;;;24.20;99.90;;;;;;5060814;28;19917;-78
2022/08/19 09:21:09;;;;;;;;;;;23.50;99.90;;;;;;5055988;28;19912;-74
2022/08/19 09:23:35;;;;;;;;;;;22.70;99.90;;;;;;5049344;28;20407;-78
2022/08/19 09:26:06;;;;;;;;;;;22.50;99.90;;;;;;5050906;28;20303;-79
2022/08/19 09:28:31;;;;;;;;;;;22.40;99.90;;;;;;5054392;28;19936;-79
2022/08/19 09:30:57;;;;;;;;;;;22.30;99.90;;;;;;5057977;28;19913;-79
2022/08/19 09:33:22;;;;;;;;;;;22.30;99.90;;;;;;5055175;28;19974;-74
2022/08/19 09:35:48;;;;;;;;;;;22.60;99.90;;;;;;5055403;28;19965;-79
2022/08/19 09:38:13;;;;;;;;;;;22.60;99.90;;;;;;5053407;28;20430;-80
2022/08/19 09:40:38;;;;;;;;;;;22.20;99.90;;;;;;5048622;28;19920;-79
2022/08/19 09:43:04;;;;;;;;;;;21.70;99.90;;;;;;5044512;28;19982;-79
2022/08/19 09:45:30;;;;;;;;;;;21.70;99.90;;;;;;5050152;28;20380;-74
2022/08/19 09:47:56;;;;;;;;;;;21.80;99.90;;;;;;5045879;28;20422;-79
2022/08/19 09:50:22;;;;;;;;;;;21.90;99.90;;;;;;5048693;28;19916;-79
2022/08/19 09:52:48;;;;;;;;;;;21.90;99.90;;;;;;5050932;28;19912;-79
2022/08/19 09:55:15;;;;;;;;;;;22.00;99.90;;;;;;5045455;28;20327;-79
2022/08/19 09:57:41;;;;;;;;;;;22.30;99.90;;;;;;5049731;28;19928;-75
2022/08/19 10:00:08;;;;;;;;;;;22.70;99.90;;;;;;5047863;28;19917;-74
2022/08/19 10:02:34;;;;;;;;;;;22.60;99.90;;;;;;5049000;28;19990;-79
2022/08/19 10:07:43;;;;;;;;;;;22.50;99.90;;;;;;5046700;28;19963;-79
2022/08/19 10:10:09;;;;;;;;;;;22.60;99.90;;;;;;5048463;28;19920;-74
2022/08/19 10:12:35;;;;;;;;;;;22.40;99.90;;;;;;5043307;28;19943;-74
2022/08/19 10:15:01;;;;;;;;;;;22.20;99.90;;;;;;5047381;28;19916;-79
2022/08/19 10:17:27;;;;;;;;;;;22.50;99.90;;;;;;5051025;28;20410;-80
2022/08/19 10:19:52;;;;;;;;;;;22.70;99.90;;;;;;5049337;28;19913;-74
2022/08/19 10:22:18;;;;;;;;;;;22.80;99.90;;;;;;5051892;28;19920;-80
2022/08/19 10:24:45;;;;;;;;;;;22.80;99.90;;;;;;5049254;28;19909;-74
2022/08/19 10:27:12;;;;;;;;;;;22.40;99.90;;;;;;5052002;28;20388;-78
2022/08/19 10:29:38;;;;;;;;;;;22.40;99.90;;;;;;5051348;28;19936;-79
2022/08/19 10:32:07;;;;;;;;;;;22.20;99.90;;;;;;5059764;28;19909;-80
2022/08/19 10:34:33;;;;;;;;;;;21.90;99.90;;;;;;5054042;28;20268;-77
2022/08/19 10:37:00;;;;;;;;;;;21.80;99.90;;;;;;5046970;28;19917;-74
2022/08/19 10:39:27;;;;;;;;;;;21.70;99.90;;;;;;5039884;28;19913;-79
2022/08/19 10:41:52;;;;;;;;;;;21.90;99.90;;;;;;5046305;28;19931;-79
2022/08/19 10:44:19;;;;;;;;;;;22.20;99.90;;;;;;5041904;28;19913;-79
2022/08/19 10:46:46;;;;;;;;;;;22.20;99.90;;;;;;5044611;28;19924;-74
2022/08/19 10:49:12;;;;;;;;;;;21.90;99.90;;;;;;5049384;28;20447;-74
2022/08/19 10:54:23;;;;;;;;;;;22.30;99.90;;;;;;5048479;28;20287;-79
2022/08/19 10:56:51;;;;;;;;;;;23.20;99.90;;;;;;5050666;28;19912;-80
2022/08/19 10:59:22;;;;;;;;;;;24.00;99.90;;;;;;5046696;28;19927;-79
2022/08/19 11:01:48;;;;;;;;;;;23.90;99.90;;;;;;5045607;28;19913;-74
2022/08/19 11:04:17;;;;;;;;;;;24.20;99.90;;;;;;5050349;28;20003;-75
2022/08/19 11:06:45;;;;;;;;;;;25.90;99.90;;;;;;5046009;28;19922;-79
2022/08/19 11:09:11;;;;;;;;;;;26.90;99.90;;;;;;5053824;28;19923;-80
2022/08/19 11:11:40;;;;;;;;;;;27.90;99.90;;;;;;5055257;28;19920;-80
2022/08/19 11:14:13;;;;;;;;;;;26.70;99.90;;;;;;5053796;28;19913;-80
2022/08/19 11:16:39;;;;;;;;;;;26.10;99.90;;;;;;5064668;28;19920;-73
2022/08/19 11:19:05;;;;;;;;;;;25.40;99.90;;;;;;5058802;28;19917;-74
2022/08/19 11:21:32;;;;;;;;;;;24.40;99.90;;;;;;5059676;28;20268;-80
2022/08/19 11:24:00;;;;;;;;;;;24.00;99.90;;;;;;5052316;28;20292;-80
2022/08/19 11:26:26;;;;;;;;;;;23.60;99.90;;;;;;5057933;28;19909;-78
2022/08/19 11:28:54;;;;;;;;;;;23.50;99.90;;;;;;5058941;28;19928;-75
2022/08/19 11:31:21;;;;;;;;;;;23.30;99.90;;;;;;5063693;28;19917;-75
2022/08/19 11:33:46;;;;;;;;;;;23.30;99.90;;;;;;5060243;28;20326;-81
2022/08/19 11:36:12;;;;;;;;;;;22.90;99.90;;;;;;5052933;28;19917;-80
2022/08/19 11:38:38;;;;;;;;;;;22.60;99.90;;;;;;5066272;28;19995;-80
2022/08/19 11:41:05;;;;;;;;;;;22.60;99.90;;;;;;5056977;28;20473;-75
2022/08/19 11:43:31;;;;;;;;;;;22.90;99.90;;;;;;5052448;28;19917;-75
2022/08/19 11:45:57;;;;;;;;;;;23.10;99.90;;;;;;5045197;28;20316;-77
2022/08/19 11:48:23;;;;;;;;;;;23.70;99.90;;;;;;5043004;28;19963;-81
2022/08/19 11:50:52;;;;;;;;;;;23.80;99.90;;;;;;5055128;28;19908;-79
2022/08/19 11:53:19;;;;;;;;;;;23.30;99.90;;;;;;5047930;28;20357;-80
2022/08/19 11:55:44;;;;;;;;;;;23.00;99.90;;;;;;5050862;28;19923;-77
2022/08/19 11:58:10;;;;;;;;;;;23.00;99.90;;;;;;5052516;28;20039;-81
2022/08/19 12:00:37;;;;;;;;;;;23.30;99.90;;;;;;5055219;28;19958;-75
2022/08/19 12:03:03;;;;;;;;;;;23.30;99.90;;;;;;5050099;28;20003;-79
2022/08/19 12:05:28;;;;;;;;;;;23.30;99.90;;;;;;5050076;28;20007;-80
2022/08/19 12:07:54;;;;;;;;;;;23.00;99.90;;;;;;5055366;28;19916;-74
2022/08/19 12:10:20;;;;;;;;;;;23.00;99.90;;;;;;5046640;28;19917;-74
2022/08/19 12:12:46;;;;;;;;;;;23.00;99.90;;;;;;5051965;28;19917;-76
2022/08/19 12:15:12;;;;;;;;;;;23.10;99.90;;;;;;5052865;28;19912;-81
2022/08/19 12:17:38;;;;;;;;;;;22.90;99.90;;;;;;5047167;28;20288;-75
2022/08/19 12:20:04;;;;;;;;;;;22.70;99.90;;;;;;5039274;28;19909;-77
2022/08/19 12:22:30;;;;;;;;;;;22.60;99.90;;;;;;5050139;28;20062;-75
2022/08/19 12:24:56;;;;;;;;;;;22.70;99.90;;;;;;5044057;28;20016;-81
2022/08/19 12:27:21;;;;;;;;;;;22.70;99.90;;;;;;5046733;28;20407;-78
2022/08/19 12:29:47;;;;;;;;;;;22.70;99.90;;;;;;5043149;28;20376;-83
2022/08/19 12:32:12;;;;;;;;;;;23.00;99.90;;;;;;5044672;28;19913;-76
2022/08/19 12:34:38;;;;;;;;;;;23.00;99.90;;;;;;5054323;28;19928;-74
2022/08/19 12:37:04;;;;;;;;;;;23.30;99.90;;;;;;5051530;28;20363;-80
2022/08/19 12:39:33;;;;;;;;;;;23.60;99.90;;;;;;5049809;28;19913;-82
2022/08/19 12:41:59;;;;;;;;;;;23.90;99.90;;;;;;5053685;28;19921;-76
2022/08/19 12:44:25;;;;;;;;;;;23.60;99.90;;;;;;5042356;28;19972;-82
2022/08/19 12:46:50;;;;;;;;;;;23.50;99.90;;;;;;5047636;28;19960;-73
2022/08/19 12:49:16;;;;;;;;;;;23.30;99.90;;;;;;5042743;28;19917;-73
2022/08/19 12:51:42;;;;;;;;;;;23.40;99.90;;;;;;5052884;28;19999;-75
2022/08/19 12:54:07;;;;;;;;;;;23.50;99.90;;;;;;5046674;28;19996;-82
2022/08/19 12:56:33;;;;;;;;;;;23.60;99.90;;;;;;5049288;28;20311;-83
2022/08/19 12:59:02;;;;;;;;;;;23.20;99.90;;;;;;5057057;28;19920;-75
2022/08/19 13:01:32;;;;;;;;;;;23.00;99.90;;;;;;5047197;28;19919;-75
2022/08/19 13:03:58;;;;;;;;;;;23.40;99.90;;;;;;5044777;28;20007;-81
2022/08/19 13:06:24;;;;;;;;;;;24.10;99.90;;;;;;5048090;28;19923;-83
2022/08/19 13:08:49;;;;;;;;;;;24.50;99.90;;;;;;5044429;28;19917;-81
2022/08/19 13:11:17;;;;;;;;;;;24.60;99.90;;;;;;5045065;28;19917;-82
2022/08/19 13:13:43;;;;;;;;;;;24.60;99.90;;;;;;5046180;28;19917;-74
2022/08/19 13:16:10;;;;;;;;;;;24.40;99.90;;;;;;5050791;28;19917;-82
2022/08/19 13:18:37;;;;;;;;;;;24.70;99.90;;;;;;5050706;28;19971;-84
2022/08/19 13:21:04;;;;;;;;;;;25.00;99.90;;;;;;5046298;28;19913;-79
2022/08/19 13:23:30;;;;;;;;;;;25.10;99.90;;;;;;5044806;28;19914;-80
2022/08/19 13:25:57;;;;;;;;;;;25.30;99.90;;;;;;5043745;28;19990;-73
2022/08/19 13:28:22;;;;;;;;;;;25.10;99.90;;;;;;5044075;28;21453;-73
2022/08/19 13:33:33;;;;;;;;;;;25.20;99.90;;;;;;5039740;28;19924;-73
2022/08/19 13:36:00;;;;;;;;;;;25.00;99.90;;;;;;5048661;28;20458;-78
2022/08/19 13:38:26;;;;;;;;;;;24.60;99.90;;;;;;5048448;28;19917;-73
2022/08/19 13:40:52;;;;;;;;;;;24.50;99.90;;;;;;5041612;28;20011;-74
2022/08/19 13:43:19;;;;;;;;;;;24.40;99.90;;;;;;5046632;28;19921;-77
2022/08/19 13:45:45;;;;;;;;;;;24.70;99.90;;;;;;5048580;28;19967;-79
2022/08/19 13:48:10;;;;;;;;;;;24.60;99.90;;;;;;5045110;28;19913;-74
2022/08/19 13:50:41;;;;;;;;;;;25.00;99.90;;;;;;5046539;28;19933;-80
2022/08/19 13:53:07;;;;;;;;;;;25.30;99.90;;;;;;5045505;28;19992;-73
2022/08/19 13:55:32;;;;;;;;;;;25.40;99.90;;;;;;5043671;28;20026;-73
2022/08/19 13:58:01;;;;;;;;;;;25.10;99.90;;;;;;5039432;28;19975;-79
2022/08/19 14:00:27;;;;;;;;;;;25.20;99.90;;;;;;5048097;28;19944;-73
2022/08/19 14:02:55;;;;;;;;;;;24.80;99.90;;;;;;5044175;28;20368;-80
2022/08/19 14:05:21;;;;;;;;;;;24.80;99.90;;;;;;5042419;28;19913;-73
2022/08/19 14:07:47;;;;;;;;;;;25.00;99.90;;;;;;5041310;28;20259;-73
2022/08/19 14:10:13;;;;;;;;;;;25.50;99.90;;;;;;5041894;28;19921;-74
2022/08/19 14:12:39;;;;;;;;;;;24.90;99.90;;;;;;5040873;28;20380;-78
2022/08/19 14:15:06;;;;;;;;;;;24.90;99.90;;;;;;5045944;28;19917;-77
2022/08/19 14:17:34;;;;;;;;;;;24.60;99.90;;;;;;5041565;28;19971;-73
2022/08/19 14:20:07;;;;;;;;;;;24.90;99.90;;;;;;5043362;28;19917;-73
2022/08/19 14:22:33;;;;;;;;;;;25.20;99.90;;;;;;5038023;28;19919;-79
2022/08/19 14:24:59;;;;;;;;;;;25.20;99.90;;;;;;5040238;28;19913;-80
2022/08/19 14:27:25;;;;;;;;;;;25.50;99.90;;;;;;5042450;28;19991;-78
2022/08/19 14:29:51;;;;;;;;;;;25.90;99.90;;;;;;5036417;28;20066;-82
2022/08/19 14:32:16;;;;;;;;;;;27.00;99.90;;;;;;5040180;28;19948;-73
2022/08/19 14:34:42;;;;;;;;;;;26.40;99.90;;;;;;5039989;28;19920;-81